sensor_id;sensor_type;location;lat;lon;timestamp;P1;durP1;ratioP1;P2;durP2;ratioP2
76409;SDS011;65238;42.662;23.280;2022-11-20T00:01:12;2.17;;;1.00;;
76409;SDS011;65238;42.662;23.280;2022-11-20T00:03:39;2.70;;;0.80;;
76409;SDS011;65238;42.662;23.280;2022-11-20T00:06:08;4.75;;;1.33;;
76409;SDS011;65238;42.662;23.280;2022-11-20T00:08:38;4.35;;;1.02;;
76409;SDS011;65238;42.662;23.280;2022-11-20T00:11:08;4.35;;;0.80;;
76409;SDS011;65238;42.662;23.280;2022-11-20T00:13:35;4.20;;;1.30;;
76409;SDS011;65238;42.662;23.280;2022-11-20T00:16:01;4.03;;;1.20;;
76409;SDS011;65238;42.662;23.280;2022-11-20T00:18:28;1.27;;;1.00;;
76409;SDS011;65238;42.662;23.280;2022-11-20T00:20:53;4.15;;;0.90;;
76409;SDS011;65238;42.662;23.280;2022-11-20T00:23:19;4.60;;;1.25;;
76409;SDS011;65238;42.662;23.280;2022-11-20T00:25:44;4.43;;;1.23;;
76409;SDS011;65238;42.662;23.280;2022-11-20T00:28:10;2.53;;;1.00;;
76409;SDS011;65238;42.662;23.280;2022-11-20T00:30:35;3.13;;;0.82;;
76409;SDS011;65238;42.662;23.280;2022-11-20T00:33:01;4.68;;;0.75;;
76409;SDS011;65238;42.662;23.280;2022-11-20T00:35:26;3.55;;;0.63;;
76409;SDS011;65238;42.662;23.280;2022-11-20T00:37:51;2.13;;;0.80;;
76409;SDS011;65238;42.662;23.280;2022-11-20T00:40:17;4.07;;;1.08;;
76409;SDS011;65238;42.662;23.280;2022-11-20T00:42:42;2.08;;;0.77;;
76409;SDS011;65238;42.662;23.280;2022-11-20T00:45:08;2.05;;;0.80;;
76409;SDS011;65238;42.662;23.280;2022-11-20T00:47:33;3.67;;;0.70;;
76409;SDS011;65238;42.662;23.280;2022-11-20T00:49:59;2.33;;;1.10;;
76409;SDS011;65238;42.662;23.280;2022-11-20T00:52:24;5.25;;;0.85;;
76409;SDS011;65238;42.662;23.280;2022-11-20T00:54:49;2.92;;;0.90;;
76409;SDS011;65238;42.662;23.280;2022-11-20T00:57:15;3.35;;;1.30;;
76409;SDS011;65238;42.662;23.280;2022-11-20T00:59:40;3.60;;;1.00;;
76409;SDS011;65238;42.662;23.280;2022-11-20T01:02:06;4.75;;;1.05;;
76409;SDS011;65238;42.662;23.280;2022-11-20T01:04:31;1.73;;;0.93;;
76409;SDS011;65238;42.662;23.280;2022-11-20T01:06:56;3.15;;;0.90;;
76409;SDS011;65238;42.662;23.280;2022-11-20T01:09:22;2.67;;;1.00;;
76409;SDS011;65238;42.662;23.280;2022-11-20T01:11:47;3.60;;;1.00;;
76409;SDS011;65238;42.662;23.280;2022-11-20T01:14:14;3.80;;;0.98;;
76409;SDS011;65238;42.662;23.280;2022-11-20T01:16:48;3.22;;;0.90;;
76409;SDS011;65238;42.662;23.280;2022-11-20T01:19:15;2.78;;;0.88;;
76409;SDS011;65238;42.662;23.280;2022-11-20T01:21:42;1.85;;;1.00;;
76409;SDS011;65238;42.662;23.280;2022-11-20T01:24:13;3.42;;;0.80;;
76409;SDS011;65238;42.662;23.280;2022-11-20T01:26:40;4.28;;;1.27;;
76409;SDS011;65238;42.662;23.280;2022-11-20T01:29:07;3.67;;;1.38;;
76409;SDS011;65238;42.662;23.280;2022-11-20T01:31:35;3.15;;;0.90;;
76409;SDS011;65238;42.662;23.280;2022-11-20T01:34:06;2.35;;;1.10;;
76409;SDS011;65238;42.662;23.280;2022-11-20T01:36:33;4.43;;;0.82;;
76409;SDS011;65238;42.662;23.280;2022-11-20T01:39:02;1.27;;;0.70;;
76409;SDS011;65238;42.662;23.280;2022-11-20T01:41:30;3.53;;;0.80;;
76409;SDS011;65238;42.662;23.280;2022-11-20T01:44:16;2.95;;;0.93;;
76409;SDS011;65238;42.662;23.280;2022-11-20T01:46:56;3.65;;;1.15;;
76409;SDS011;65238;42.662;23.280;2022-11-20T01:49:29;3.50;;;1.10;;
76409;SDS011;65238;42.662;23.280;2022-11-20T01:52:01;2.47;;;1.00;;
76409;SDS011;65238;42.662;23.280;2022-11-20T01:54:34;2.38;;;0.70;;
76409;SDS011;65238;42.662;23.280;2022-11-20T01:57:03;1.98;;;0.73;;
76409;SDS011;65238;42.662;23.280;2022-11-20T01:59:30;1.60;;;0.70;;
76409;SDS011;65238;42.662;23.280;2022-11-20T02:01:55;2.03;;;0.57;;
76409;SDS011;65238;42.662;23.280;2022-11-20T02:04:21;11.75;;;0.88;;
76409;SDS011;65238;42.662;23.280;2022-11-20T02:07:21;3.90;;;0.77;;
76409;SDS011;65238;42.662;23.280;2022-11-20T02:12:04;2.00;;;0.88;;
76409;SDS011;65238;42.662;23.280;2022-11-20T02:14:50;2.55;;;0.60;;
76409;SDS011;65238;42.662;23.280;2022-11-20T02:17:16;1.83;;;0.70;;
76409;SDS011;65238;42.662;23.280;2022-11-20T02:19:41;3.55;;;0.70;;
76409;SDS011;65238;42.662;23.280;2022-11-20T02:24:36;1.52;;;0.70;;
76409;SDS011;65238;42.662;23.280;2022-11-20T02:27:03;1.88;;;0.65;;
76409;SDS011;65238;42.662;23.280;2022-11-20T02:32:17;4.13;;;0.85;;
76409;SDS011;65238;42.662;23.280;2022-11-20T02:34:44;5.05;;;0.70;;
76409;SDS011;65238;42.662;23.280;2022-11-20T02:37:09;2.90;;;0.70;;
76409;SDS011;65238;42.662;23.280;2022-11-20T02:39:35;2.25;;;0.70;;
76409;SDS011;65238;42.662;23.280;2022-11-20T02:42:01;3.92;;;1.23;;
76409;SDS011;65238;42.662;23.280;2022-11-20T02:44:27;3.72;;;0.88;;
76409;SDS011;65238;42.662;23.280;2022-11-20T02:46:52;3.05;;;0.85;;
76409;SDS011;65238;42.662;23.280;2022-11-20T02:49:18;4.30;;;1.40;;
76409;SDS011;65238;42.662;23.280;2022-11-20T02:51:43;5.43;;;0.80;;
76409;SDS011;65238;42.662;23.280;2022-11-20T02:54:08;1.30;;;0.77;;
76409;SDS011;65238;42.662;23.280;2022-11-20T02:56:34;3.78;;;1.20;;
76409;SDS011;65238;42.662;23.280;2022-11-20T02:58:59;2.08;;;0.90;;
76409;SDS011;65238;42.662;23.280;2022-11-20T03:01:25;2.78;;;1.27;;
76409;SDS011;65238;42.662;23.280;2022-11-20T03:03:50;2.60;;;0.85;;
76409;SDS011;65238;42.662;23.280;2022-11-20T03:06:19;2.80;;;1.25;;
76409;SDS011;65238;42.662;23.280;2022-11-20T03:08:45;2.45;;;1.15;;
76409;SDS011;65238;42.662;23.280;2022-11-20T03:11:10;3.58;;;0.90;;
76409;SDS011;65238;42.662;23.280;2022-11-20T03:13:36;5.30;;;1.20;;
76409;SDS011;65238;42.662;23.280;2022-11-20T03:16:11;2.85;;;1.17;;
76409;SDS011;65238;42.662;23.280;2022-11-20T03:18:39;3.78;;;0.95;;
76409;SDS011;65238;42.662;23.280;2022-11-20T03:21:06;6.47;;;1.35;;
76409;SDS011;65238;42.662;23.280;2022-11-20T03:23:31;7.00;;;1.02;;
76409;SDS011;65238;42.662;23.280;2022-11-20T03:28:52;3.17;;;0.95;;
76409;SDS011;65238;42.662;23.280;2022-11-20T03:31:23;4.93;;;1.00;;
76409;SDS011;65238;42.662;23.280;2022-11-20T03:33:52;4.00;;;0.75;;
76409;SDS011;65238;42.662;23.280;2022-11-20T03:36:18;0.52;;;0.40;;
76409;SDS011;65238;42.662;23.280;2022-11-20T03:38:44;5.32;;;0.95;;
76409;SDS011;65238;42.662;23.280;2022-11-20T03:41:11;2.13;;;0.85;;
76409;SDS011;65238;42.662;23.280;2022-11-20T03:43:38;4.30;;;1.58;;
76409;SDS011;65238;42.662;23.280;2022-11-20T03:46:04;4.43;;;1.02;;
76409;SDS011;65238;42.662;23.280;2022-11-20T03:48:29;3.72;;;1.00;;
76409;SDS011;65238;42.662;23.280;2022-11-20T03:53:36;2.72;;;0.60;;
76409;SDS011;65238;42.662;23.280;2022-11-20T03:56:02;2.15;;;1.02;;
76409;SDS011;65238;42.662;23.280;2022-11-20T03:58:28;3.50;;;1.02;;
76409;SDS011;65238;42.662;23.280;2022-11-20T04:00:54;4.97;;;1.00;;
76409;SDS011;65238;42.662;23.280;2022-11-20T04:03:19;2.75;;;0.93;;
76409;SDS011;65238;42.662;23.280;2022-11-20T04:05:45;1.38;;;0.80;;
76409;SDS011;65238;42.662;23.280;2022-11-20T04:08:10;3.80;;;0.70;;
76409;SDS011;65238;42.662;23.280;2022-11-20T04:10:36;2.90;;;1.27;;
76409;SDS011;65238;42.662;23.280;2022-11-20T04:13:01;4.65;;;1.60;;
76409;SDS011;65238;42.662;23.280;2022-11-20T04:15:26;1.45;;;0.90;;
76409;SDS011;65238;42.662;23.280;2022-11-20T04:17:52;6.75;;;1.52;;
76409;SDS011;65238;42.662;23.280;2022-11-20T04:20:18;2.45;;;0.70;;
76409;SDS011;65238;42.662;23.280;2022-11-20T04:22:44;3.25;;;0.60;;
76409;SDS011;65238;42.662;23.280;2022-11-20T04:25:10;1.95;;;0.70;;
76409;SDS011;65238;42.662;23.280;2022-11-20T04:27:35;1.20;;;0.75;;
76409;SDS011;65238;42.662;23.280;2022-11-20T04:30:01;1.13;;;0.50;;
76409;SDS011;65238;42.662;23.280;2022-11-20T04:32:26;3.15;;;1.10;;
76409;SDS011;65238;42.662;23.280;2022-11-20T04:34:52;1.90;;;0.90;;
76409;SDS011;65238;42.662;23.280;2022-11-20T04:37:17;4.95;;;1.42;;
76409;SDS011;65238;42.662;23.280;2022-11-20T04:39:42;3.67;;;0.80;;
76409;SDS011;65238;42.662;23.280;2022-11-20T04:42:08;1.70;;;0.70;;
76409;SDS011;65238;42.662;23.280;2022-11-20T04:44:53;0.98;;;0.55;;
76409;SDS011;65238;42.662;23.280;2022-11-20T04:47:19;4.03;;;1.02;;
76409;SDS011;65238;42.662;23.280;2022-11-20T04:49:44;4.45;;;0.98;;
76409;SDS011;65238;42.662;23.280;2022-11-20T04:52:10;4.10;;;1.15;;
76409;SDS011;65238;42.662;23.280;2022-11-20T04:54:35;4.68;;;0.80;;
76409;SDS011;65238;42.662;23.280;2022-11-20T04:57:01;2.90;;;0.95;;
76409;SDS011;65238;42.662;23.280;2022-11-20T04:59:26;2.83;;;1.08;;
76409;SDS011;65238;42.662;23.280;2022-11-20T05:01:51;3.63;;;0.90;;
76409;SDS011;65238;42.662;23.280;2022-11-20T05:04:17;3.15;;;1.05;;
76409;SDS011;65238;42.662;23.280;2022-11-20T05:06:42;2.58;;;0.73;;
76409;SDS011;65238;42.662;23.280;2022-11-20T05:09:08;6.07;;;0.82;;
76409;SDS011;65238;42.662;23.280;2022-11-20T05:11:33;1.05;;;0.70;;
76409;SDS011;65238;42.662;23.280;2022-11-20T05:13:58;1.98;;;1.33;;
76409;SDS011;65238;42.662;23.280;2022-11-20T05:16:25;1.42;;;0.57;;
76409;SDS011;65238;42.662;23.280;2022-11-20T05:18:51;4.25;;;0.80;;
76409;SDS011;65238;42.662;23.280;2022-11-20T05:21:17;1.23;;;0.70;;
76409;SDS011;65238;42.662;23.280;2022-11-20T05:23:44;3.47;;;2.00;;
76409;SDS011;65238;42.662;23.280;2022-11-20T05:26:14;2.55;;;0.68;;
76409;SDS011;65238;42.662;23.280;2022-11-20T05:28:43;3.00;;;0.70;;
76409;SDS011;65238;42.662;23.280;2022-11-20T05:31:10;3.20;;;0.95;;
76409;SDS011;65238;42.662;23.280;2022-11-20T05:33:39;1.85;;;0.60;;
76409;SDS011;65238;42.662;23.280;2022-11-20T05:36:05;3.50;;;1.10;;
76409;SDS011;65238;42.662;23.280;2022-11-20T05:38:31;2.25;;;0.70;;
76409;SDS011;65238;42.662;23.280;2022-11-20T05:41:04;2.00;;;1.10;;
76409;SDS011;65238;42.662;23.280;2022-11-20T05:43:33;5.57;;;1.00;;
76409;SDS011;65238;42.662;23.280;2022-11-20T05:46:02;1.10;;;0.70;;
76409;SDS011;65238;42.662;23.280;2022-11-20T05:48:29;7.10;;;1.05;;
76409;SDS011;65238;42.662;23.280;2022-11-20T05:50:56;2.72;;;0.80;;
76409;SDS011;65238;42.662;23.280;2022-11-20T05:53:22;5.60;;;0.90;;
76409;SDS011;65238;42.662;23.280;2022-11-20T05:55:55;3.92;;;0.88;;
76409;SDS011;65238;42.662;23.280;2022-11-20T05:58:25;1.70;;;0.80;;
76409;SDS011;65238;42.662;23.280;2022-11-20T06:00:50;3.05;;;0.70;;
76409;SDS011;65238;42.662;23.280;2022-11-20T06:03:16;1.83;;;0.75;;
76409;SDS011;65238;42.662;23.280;2022-11-20T06:05:41;3.22;;;0.80;;
76409;SDS011;65238;42.662;23.280;2022-11-20T06:08:07;2.58;;;0.70;;
76409;SDS011;65238;42.662;23.280;2022-11-20T06:10:32;3.78;;;1.00;;
76409;SDS011;65238;42.662;23.280;2022-11-20T06:12:58;2.92;;;0.80;;
76409;SDS011;65238;42.662;23.280;2022-11-20T06:15:23;3.13;;;0.80;;
76409;SDS011;65238;42.662;23.280;2022-11-20T06:17:51;3.10;;;1.00;;
76409;SDS011;65238;42.662;23.280;2022-11-20T06:20:18;3.17;;;0.80;;
76409;SDS011;65238;42.662;23.280;2022-11-20T06:22:43;2.80;;;0.80;;
76409;SDS011;65238;42.662;23.280;2022-11-20T06:25:08;7.07;;;0.93;;
76409;SDS011;65238;42.662;23.280;2022-11-20T06:27:34;2.13;;;0.82;;
76409;SDS011;65238;42.662;23.280;2022-11-20T06:29:59;3.90;;;0.75;;
76409;SDS011;65238;42.662;23.280;2022-11-20T06:32:24;2.40;;;0.80;;
76409;SDS011;65238;42.662;23.280;2022-11-20T06:34:50;2.08;;;0.57;;
76409;SDS011;65238;42.662;23.280;2022-11-20T06:37:15;3.70;;;0.80;;
76409;SDS011;65238;42.662;23.280;2022-11-20T06:39:41;2.10;;;0.73;;
76409;SDS011;65238;42.662;23.280;2022-11-20T06:42:06;5.90;;;0.90;;
76409;SDS011;65238;42.662;23.280;2022-11-20T06:44:32;5.47;;;0.70;;
76409;SDS011;65238;42.662;23.280;2022-11-20T06:46:57;6.20;;;0.82;;
76409;SDS011;65238;42.662;23.280;2022-11-20T06:49:23;2.67;;;0.60;;
76409;SDS011;65238;42.662;23.280;2022-11-20T06:51:48;4.60;;;0.68;;
76409;SDS011;65238;42.662;23.280;2022-11-20T06:54:14;1.95;;;0.60;;
76409;SDS011;65238;42.662;23.280;2022-11-20T06:56:39;3.58;;;0.65;;
76409;SDS011;65238;42.662;23.280;2022-11-20T06:59:05;4.05;;;0.60;;
76409;SDS011;65238;42.662;23.280;2022-11-20T07:01:31;1.00;;;0.50;;
76409;SDS011;65238;42.662;23.280;2022-11-20T07:03:56;2.00;;;0.98;;
76409;SDS011;65238;42.662;23.280;2022-11-20T07:06:21;3.67;;;1.33;;
76409;SDS011;65238;42.662;23.280;2022-11-20T07:08:47;2.95;;;0.65;;
76409;SDS011;65238;42.662;23.280;2022-11-20T07:11:12;1.70;;;0.60;;
76409;SDS011;65238;42.662;23.280;2022-11-20T07:13:38;3.88;;;0.70;;
76409;SDS011;65238;42.662;23.280;2022-11-20T07:16:05;3.38;;;1.10;;
76409;SDS011;65238;42.662;23.280;2022-11-20T07:18:31;4.03;;;0.90;;
76409;SDS011;65238;42.662;23.280;2022-11-20T07:21:01;4.30;;;0.90;;
76409;SDS011;65238;42.662;23.280;2022-11-20T07:23:30;3.20;;;0.95;;
76409;SDS011;65238;42.662;23.280;2022-11-20T07:25:56;4.93;;;0.80;;
76409;SDS011;65238;42.662;23.280;2022-11-20T07:28:21;4.60;;;1.00;;
76409;SDS011;65238;42.662;23.280;2022-11-20T07:30:50;2.97;;;0.93;;
76409;SDS011;65238;42.662;23.280;2022-11-20T07:33:16;3.03;;;0.80;;
76409;SDS011;65238;42.662;23.280;2022-11-20T07:35:41;2.95;;;1.10;;
76409;SDS011;65238;42.662;23.280;2022-11-20T07:38:07;4.82;;;1.00;;
76409;SDS011;65238;42.662;23.280;2022-11-20T07:40:33;2.85;;;0.65;;
76409;SDS011;65238;42.662;23.280;2022-11-20T07:42:58;2.90;;;0.90;;
76409;SDS011;65238;42.662;23.280;2022-11-20T07:45:23;7.70;;;0.95;;
76409;SDS011;65238;42.662;23.280;2022-11-20T07:47:49;6.82;;;0.95;;
76409;SDS011;65238;42.662;23.280;2022-11-20T07:50:15;5.60;;;0.95;;
76409;SDS011;65238;42.662;23.280;2022-11-20T07:52:41;3.42;;;0.90;;
76409;SDS011;65238;42.662;23.280;2022-11-20T07:55:07;4.60;;;0.98;;
76409;SDS011;65238;42.662;23.280;2022-11-20T07:57:33;8.55;;;1.48;;
76409;SDS011;65238;42.662;23.280;2022-11-20T07:59:58;10.18;;;1.70;;
76409;SDS011;65238;42.662;23.280;2022-11-20T08:02:24;3.28;;;0.90;;
76409;SDS011;65238;42.662;23.280;2022-11-20T08:04:49;4.82;;;0.95;;
76409;SDS011;65238;42.662;23.280;2022-11-20T08:07:14;7.88;;;1.80;;
76409;SDS011;65238;42.662;23.280;2022-11-20T08:09:40;5.85;;;1.33;;
76409;SDS011;65238;42.662;23.280;2022-11-20T08:12:09;7.30;;;1.30;;
76409;SDS011;65238;42.662;23.280;2022-11-20T08:15:01;4.25;;;1.42;;
76409;SDS011;65238;42.662;23.280;2022-11-20T08:17:26;3.45;;;1.25;;
76409;SDS011;65238;42.662;23.280;2022-11-20T08:19:51;3.47;;;1.50;;
76409;SDS011;65238;42.662;23.280;2022-11-20T08:22:17;5.03;;;1.17;;
76409;SDS011;65238;42.662;23.280;2022-11-20T08:24:42;3.97;;;1.30;;
76409;SDS011;65238;42.662;23.280;2022-11-20T08:27:08;9.70;;;2.33;;
76409;SDS011;65238;42.662;23.280;2022-11-20T08:29:33;5.10;;;1.40;;
76409;SDS011;65238;42.662;23.280;2022-11-20T08:31:58;8.32;;;1.45;;
76409;SDS011;65238;42.662;23.280;2022-11-20T08:34:24;9.60;;;2.00;;
76409;SDS011;65238;42.662;23.280;2022-11-20T08:36:49;4.72;;;0.90;;
76409;SDS011;65238;42.662;23.280;2022-11-20T08:39:15;6.68;;;1.75;;
76409;SDS011;65238;42.662;23.280;2022-11-20T08:41:40;6.50;;;1.50;;
76409;SDS011;65238;42.662;23.280;2022-11-20T08:44:06;4.28;;;1.20;;
76409;SDS011;65238;42.662;23.280;2022-11-20T08:46:39;5.65;;;1.50;;
76409;SDS011;65238;42.662;23.280;2022-11-20T08:49:07;4.35;;;1.20;;
76409;SDS011;65238;42.662;23.280;2022-11-20T08:51:34;6.53;;;1.83;;
76409;SDS011;65238;42.662;23.280;2022-11-20T08:53:59;7.75;;;1.48;;
76409;SDS011;65238;42.662;23.280;2022-11-20T08:56:25;10.30;;;2.03;;
76409;SDS011;65238;42.662;23.280;2022-11-20T08:58:51;5.00;;;1.75;;
76409;SDS011;65238;42.662;23.280;2022-11-20T09:01:17;3.95;;;1.92;;
76409;SDS011;65238;42.662;23.280;2022-11-20T09:03:43;4.57;;;2.00;;
76409;SDS011;65238;42.662;23.280;2022-11-20T09:06:09;8.32;;;2.55;;
76409;SDS011;65238;42.662;23.280;2022-11-20T09:08:34;10.55;;;2.85;;
76409;SDS011;65238;42.662;23.280;2022-11-20T09:11:01;10.45;;;2.22;;
76409;SDS011;65238;42.662;23.280;2022-11-20T09:13:27;6.68;;;2.20;;
76409;SDS011;65238;42.662;23.280;2022-11-20T09:15:54;7.03;;;2.17;;
76409;SDS011;65238;42.662;23.280;2022-11-20T09:18:26;6.97;;;2.03;;
76409;SDS011;65238;42.662;23.280;2022-11-20T09:20:57;5.47;;;2.00;;
76409;SDS011;65238;42.662;23.280;2022-11-20T09:23:23;5.50;;;1.25;;
76409;SDS011;65238;42.662;23.280;2022-11-20T09:25:49;2.97;;;1.10;;
76409;SDS011;65238;42.662;23.280;2022-11-20T09:28:15;3.00;;;1.15;;
76409;SDS011;65238;42.662;23.280;2022-11-20T09:30:41;1.65;;;0.98;;
76409;SDS011;65238;42.662;23.280;2022-11-20T09:33:06;2.53;;;0.98;;
76409;SDS011;65238;42.662;23.280;2022-11-20T09:35:32;4.32;;;0.85;;
76409;SDS011;65238;42.662;23.280;2022-11-20T09:37:58;5.22;;;1.45;;
76409;SDS011;65238;42.662;23.280;2022-11-20T09:40:29;3.35;;;1.10;;
76409;SDS011;65238;42.662;23.280;2022-11-20T09:53:52;6.55;;;1.60;;
76409;SDS011;65238;42.662;23.280;2022-11-20T09:56:26;6.57;;;2.03;;
76409;SDS011;65238;42.662;23.280;2022-11-20T09:58:52;4.95;;;1.83;;
76409;SDS011;65238;42.662;23.280;2022-11-20T10:01:21;5.07;;;1.70;;
76409;SDS011;65238;42.662;23.280;2022-11-20T10:06:28;10.32;;;2.65;;
76409;SDS011;65238;42.662;23.280;2022-11-20T10:09:14;7.20;;;2.08;;
76409;SDS011;65238;42.662;23.280;2022-11-20T10:14:42;8.00;;;2.67;;
76409;SDS011;65238;42.662;23.280;2022-11-20T10:25:38;7.95;;;2.58;;
76409;SDS011;65238;42.662;23.280;2022-11-20T10:37:12;4.03;;;2.00;;
76409;SDS011;65238;42.662;23.280;2022-11-20T10:47:50;6.97;;;3.38;;
76409;SDS011;65238;42.662;23.280;2022-11-20T10:50:20;12.27;;;3.33;;
76409;SDS011;65238;42.662;23.280;2022-11-20T10:55:33;8.60;;;3.33;;
76409;SDS011;65238;42.662;23.280;2022-11-20T11:01:03;15.35;;;3.90;;
76409;SDS011;65238;42.662;23.280;2022-11-20T11:03:51;12.10;;;3.55;;
76409;SDS011;65238;42.662;23.280;2022-11-20T11:06:23;10.20;;;3.95;;
76409;SDS011;65238;42.662;23.280;2022-11-20T11:08:55;10.18;;;3.08;;
76409;SDS011;65238;42.662;23.280;2022-11-20T11:13:51;6.90;;;2.33;;
76409;SDS011;65238;42.662;23.280;2022-11-20T11:16:24;4.40;;;1.27;;
76409;SDS011;65238;42.662;23.280;2022-11-20T11:18:51;4.22;;;1.05;;
76409;SDS011;65238;42.662;23.280;2022-11-20T11:21:21;4.13;;;1.00;;
76409;SDS011;65238;42.662;23.280;2022-11-20T11:23:48;2.65;;;0.70;;
76409;SDS011;65238;42.662;23.280;2022-11-20T11:26:23;2.85;;;0.50;;
76409;SDS011;65238;42.662;23.280;2022-11-20T11:31:28;1.25;;;0.38;;
76409;SDS011;65238;42.662;23.280;2022-11-20T11:34:14;1.00;;;0.40;;
76409;SDS011;65238;42.662;23.280;2022-11-20T11:36:41;1.38;;;0.32;;
76409;SDS011;65238;42.662;23.280;2022-11-20T11:39:11;2.58;;;0.68;;
76409;SDS011;65238;42.662;23.280;2022-11-20T11:41:39;2.65;;;0.60;;
76409;SDS011;65238;42.662;23.280;2022-11-20T11:50:00;2.05;;;0.70;;
76409;SDS011;65238;42.662;23.280;2022-11-20T11:52:26;3.30;;;0.68;;
76409;SDS011;65238;42.662;23.280;2022-11-20T11:54:53;2.22;;;1.35;;
76409;SDS011;65238;42.662;23.280;2022-11-20T11:57:26;4.05;;;1.10;;
76409;SDS011;65238;42.662;23.280;2022-11-20T12:00:08;3.95;;;0.95;;
76409;SDS011;65238;42.662;23.280;2022-11-20T12:02:57;5.43;;;1.02;;
76409;SDS011;65238;42.662;23.280;2022-11-20T12:05:47;3.83;;;0.77;;
76409;SDS011;65238;42.662;23.280;2022-11-20T12:08:16;3.55;;;0.93;;
76409;SDS011;65238;42.662;23.280;2022-11-20T12:15:52;1.85;;;0.68;;
76409;SDS011;65238;42.662;23.280;2022-11-20T12:18:18;2.03;;;0.70;;
76409;SDS011;65238;42.662;23.280;2022-11-20T12:20:48;4.35;;;1.15;;
76409;SDS011;65238;42.662;23.280;2022-11-20T12:23:24;1.70;;;0.60;;
76409;SDS011;65238;42.662;23.280;2022-11-20T12:25:56;4.75;;;1.10;;
76409;SDS011;65238;42.662;23.280;2022-11-20T12:36:43;2.17;;;1.05;;
76409;SDS011;65238;42.662;23.280;2022-11-20T12:39:49;2.97;;;1.35;;
76409;SDS011;65238;42.662;23.280;2022-11-20T13:01:40;2.85;;;0.82;;
76409;SDS011;65238;42.662;23.280;2022-11-20T13:06:58;5.55;;;2.92;;
76409;SDS011;65238;42.662;23.280;2022-11-20T13:09:24;6.28;;;2.15;;
76409;SDS011;65238;42.662;23.280;2022-11-20T13:17:14;14.10;;;3.25;;
76409;SDS011;65238;42.662;23.280;2022-11-20T13:19:46;7.47;;;2.50;;
76409;SDS011;65238;42.662;23.280;2022-11-20T13:22:23;7.85;;;2.50;;
76409;SDS011;65238;42.662;23.280;2022-11-20T13:24:50;6.03;;;3.47;;
76409;SDS011;65238;42.662;23.280;2022-11-20T13:27:17;5.90;;;2.38;;
76409;SDS011;65238;42.662;23.280;2022-11-20T13:29:46;8.70;;;3.25;;
76409;SDS011;65238;42.662;23.280;2022-11-20T13:32:14;6.97;;;3.25;;
76409;SDS011;65238;42.662;23.280;2022-11-20T13:34:51;8.07;;;4.18;;
76409;SDS011;65238;42.662;23.280;2022-11-20T13:40:11;6.90;;;3.22;;
76409;SDS011;65238;42.662;23.280;2022-11-20T13:45:21;12.35;;;6.28;;
76409;SDS011;65238;42.662;23.280;2022-11-20T13:47:57;10.82;;;4.10;;
76409;SDS011;65238;42.662;23.280;2022-11-20T13:50:40;10.80;;;3.15;;
76409;SDS011;65238;42.662;23.280;2022-11-20T14:01:19;5.45;;;2.33;;
76409;SDS011;65238;42.662;23.280;2022-11-20T14:03:47;4.82;;;2.70;;
76409;SDS011;65238;42.662;23.280;2022-11-20T14:06:29;5.63;;;2.78;;
76409;SDS011;65238;42.662;23.280;2022-11-20T14:08:57;5.20;;;2.72;;
76409;SDS011;65238;42.662;23.280;2022-11-20T14:11:27;13.15;;;5.85;;
76409;SDS011;65238;42.662;23.280;2022-11-20T14:16:21;37.13;;;18.92;;
76409;SDS011;65238;42.662;23.280;2022-11-20T14:18:47;19.20;;;10.35;;
76409;SDS011;65238;42.662;23.280;2022-11-20T14:21:21;25.27;;;14.38;;
76409;SDS011;65238;42.662;23.280;2022-11-20T14:23:48;16.13;;;8.95;;
76409;SDS011;65238;42.662;23.280;2022-11-20T14:26:14;9.65;;;3.83;;
76409;SDS011;65238;42.662;23.280;2022-11-20T14:28:47;9.10;;;3.83;;
76409;SDS011;65238;42.662;23.280;2022-11-20T14:31:16;5.13;;;2.60;;
76409;SDS011;65238;42.662;23.280;2022-11-20T14:33:48;4.65;;;2.08;;
76409;SDS011;65238;42.662;23.280;2022-11-20T14:36:17;5.15;;;2.50;;
76409;SDS011;65238;42.662;23.280;2022-11-20T14:38:43;5.55;;;2.03;;
76409;SDS011;65238;42.662;23.280;2022-11-20T14:41:17;3.10;;;1.70;;
76409;SDS011;65238;42.662;23.280;2022-11-20T14:43:57;3.90;;;1.98;;
76409;SDS011;65238;42.662;23.280;2022-11-20T14:46:23;3.42;;;1.48;;
76409;SDS011;65238;42.662;23.280;2022-11-20T14:48:50;4.45;;;1.42;;
76409;SDS011;65238;42.662;23.280;2022-11-20T14:51:25;4.93;;;1.50;;
76409;SDS011;65238;42.662;23.280;2022-11-20T14:56:39;4.15;;;1.50;;
76409;SDS011;65238;42.662;23.280;2022-11-20T14:59:04;2.65;;;1.40;;
76409;SDS011;65238;42.662;23.280;2022-11-20T15:01:30;3.35;;;1.38;;
76409;SDS011;65238;42.662;23.280;2022-11-20T15:03:59;3.72;;;1.58;;
76409;SDS011;65238;42.662;23.280;2022-11-20T15:06:31;5.55;;;1.63;;
76409;SDS011;65238;42.662;23.280;2022-11-20T15:08:57;2.85;;;1.70;;
76409;SDS011;65238;42.662;23.280;2022-11-20T15:11:30;5.00;;;1.83;;
76409;SDS011;65238;42.662;23.280;2022-11-20T15:13:57;5.45;;;2.08;;
76409;SDS011;65238;42.662;23.280;2022-11-20T15:16:23;6.35;;;2.05;;
76409;SDS011;65238;42.662;23.280;2022-11-20T15:18:51;7.93;;;2.85;;
76409;SDS011;65238;42.662;23.280;2022-11-20T15:21:17;6.85;;;3.30;;
76409;SDS011;65238;42.662;23.280;2022-11-20T15:23:44;4.95;;;2.72;;
76409;SDS011;65238;42.662;23.280;2022-11-20T15:26:10;9.40;;;3.25;;
76409;SDS011;65238;42.662;23.280;2022-11-20T15:28:37;5.75;;;3.17;;
76409;SDS011;65238;42.662;23.280;2022-11-20T15:31:05;5.40;;;3.17;;
76409;SDS011;65238;42.662;23.280;2022-11-20T15:33:31;7.13;;;2.92;;
76409;SDS011;65238;42.662;23.280;2022-11-20T15:35:57;5.53;;;2.80;;
76409;SDS011;65238;42.662;23.280;2022-11-20T15:38:23;7.07;;;3.47;;
76409;SDS011;65238;42.662;23.280;2022-11-20T15:40:48;5.80;;;3.65;;
76409;SDS011;65238;42.662;23.280;2022-11-20T15:43:14;7.25;;;3.47;;
76409;SDS011;65238;42.662;23.280;2022-11-20T15:48:33;6.28;;;3.15;;
76409;SDS011;65238;42.662;23.280;2022-11-20T15:51:03;4.10;;;2.22;;
76409;SDS011;65238;42.662;23.280;2022-11-20T15:53:31;3.55;;;1.70;;
76409;SDS011;65238;42.662;23.280;2022-11-20T15:55:56;5.15;;;1.67;;
76409;SDS011;65238;42.662;23.280;2022-11-20T15:58:22;3.95;;;2.13;;
76409;SDS011;65238;42.662;23.280;2022-11-20T16:00:51;5.38;;;2.10;;
76409;SDS011;65238;42.662;23.280;2022-11-20T16:03:17;5.25;;;2.00;;
76409;SDS011;65238;42.662;23.280;2022-11-20T16:05:43;8.75;;;2.40;;
76409;SDS011;65238;42.662;23.280;2022-11-20T16:08:08;4.35;;;1.98;;
76409;SDS011;65238;42.662;23.280;2022-11-20T16:10:34;5.50;;;2.13;;
76409;SDS011;65238;42.662;23.280;2022-11-20T16:13:00;10.25;;;2.15;;
76409;SDS011;65238;42.662;23.280;2022-11-20T16:15:55;5.93;;;1.95;;
76409;SDS011;65238;42.662;23.280;2022-11-20T16:18:22;5.57;;;2.20;;
76409;SDS011;65238;42.662;23.280;2022-11-20T16:20:49;3.70;;;2.33;;
76409;SDS011;65238;42.662;23.280;2022-11-20T16:23:16;3.70;;;2.10;;
76409;SDS011;65238;42.662;23.280;2022-11-20T16:25:42;5.78;;;2.25;;
76409;SDS011;65238;42.662;23.280;2022-11-20T16:28:09;4.03;;;1.75;;
76409;SDS011;65238;42.662;23.280;2022-11-20T16:30:35;4.35;;;2.33;;
76409;SDS011;65238;42.662;23.280;2022-11-20T16:33:00;3.58;;;1.63;;
76409;SDS011;65238;42.662;23.280;2022-11-20T16:35:27;7.72;;;2.35;;
76409;SDS011;65238;42.662;23.280;2022-11-20T16:37:53;4.35;;;2.00;;
76409;SDS011;65238;42.662;23.280;2022-11-20T16:40:19;2.75;;;2.00;;
76409;SDS011;65238;42.662;23.280;2022-11-20T16:42:44;2.45;;;1.42;;
76409;SDS011;65238;42.662;23.280;2022-11-20T16:45:10;2.78;;;1.40;;
76409;SDS011;65238;42.662;23.280;2022-11-20T16:47:35;4.00;;;1.40;;
76409;SDS011;65238;42.662;23.280;2022-11-20T16:50:01;5.18;;;2.17;;
76409;SDS011;65238;42.662;23.280;2022-11-20T16:52:28;6.03;;;3.20;;